sensor_id;sensor_type;location;lat;lon;timestamp;pressure;altitude;pressure_sealevel;temperature;humidity
24230;BME280;12362;50.004;8.006;2024-03-08T00:02:00;100699.19;;;6.16;100.00
24230;BME280;12362;50.004;8.006;2024-03-08T00:04:25;100687.38;;;6.07;100.00
24230;BME280;12362;50.004;8.006;2024-03-08T00:06:51;100680.59;;;6.03;100.00
24230;BME280;12362;50.004;8.006;2024-03-08T00:09:16;100692.66;;;6.01;100.00
24230;BME280;12362;50.004;8.006;2024-03-08T00:11:42;100688.56;;;5.94;100.00
24230;BME280;12362;50.004;8.006;2024-03-08T00:14:07;100676.50;;;5.95;100.00
24230;BME280;12362;50.004;8.006;2024-03-08T00:16:33;100679.41;;;5.83;100.00
24230;BME280;12362;50.004;8.006;2024-03-08T00:18:59;100679.59;;;5.74;100.00
24230;BME280;12362;50.004;8.006;2024-03-08T00:21:25;100682.38;;;5.66;100.00
24230;BME280;12362;50.004;8.006;2024-03-08T00:23:52;100680.16;;;5.51;100.00
24230;BME280;12362;50.004;8.006;2024-03-08T00:26:20;100676.09;;;5.41;100.00
24230;BME280;12362;50.004;8.006;2024-03-08T00:28:48;100673.66;;;5.37;100.00
24230;BME280;12362;50.004;8.006;2024-03-08T00:31:14;100672.13;;;5.29;100.00
24230;BME280;12362;50.004;8.006;2024-03-08T00:33:42;100672.41;;;5.17;100.00
24230;BME280;12362;50.004;8.006;2024-03-08T00:36:07;100669.03;;;5.15;100.00
24230;BME280;12362;50.004;8.006;2024-03-08T00:38:33;100664.97;;;5.05;100.00
24230;BME280;12362;50.004;8.006;2024-03-08T00:40:59;100673.66;;;5.01;100.00
24230;BME280;12362;50.004;8.006;2024-03-08T00:43:25;100671.19;;;4.96;100.00
24230;BME280;12362;50.004;8.006;2024-03-08T00:45:51;100675.72;;;4.85;100.00
24230;BME280;12362;50.004;8.006;2024-03-08T00:48:17;100666.22;;;4.87;100.00
24230;BME280;12362;50.004;8.006;2024-03-08T00:50:42;100665.41;;;4.85;100.00
24230;BME280;12362;50.004;8.006;2024-03-08T00:53:11;100663.06;;;4.75;100.00
24230;BME280;12362;50.004;8.006;2024-03-08T00:55:40;100670.00;;;4.71;100.00
24230;BME280;12362;50.004;8.006;2024-03-08T00:58:05;100657.25;;;4.65;100.00
24230;BME280;12362;50.004;8.006;2024-03-08T01:00:31;100659.16;;;4.57;100.00
24230;BME280;12362;50.004;8.006;2024-03-08T01:02:56;100668.56;;;4.57;100.00
24230;BME280;12362;50.004;8.006;2024-03-08T01:05:22;100663.63;;;4.49;100.00
24230;BME280;12362;50.004;8.006;2024-03-08T01:07:51;100656.00;;;4.44;100.00
24230;BME280;12362;50.004;8.006;2024-03-08T01:10:16;100658.63;;;4.42;100.00
24230;BME280;12362;50.004;8.006;2024-03-08T01:12:42;100651.88;;;4.35;100.00
24230;BME280;12362;50.004;8.006;2024-03-08T01:15:10;100646.69;;;4.38;100.00
24230;BME280;12362;50.004;8.006;2024-03-08T01:17:36;100656.25;;;4.32;100.00
24230;BME280;12362;50.004;8.006;2024-03-08T01:20:03;100647.72;;;4.31;100.00
24230;BME280;12362;50.004;8.006;2024-03-08T01:22:29;100646.94;;;4.26;100.00
24230;BME280;12362;50.004;8.006;2024-03-08T01:24:57;100646.97;;;4.25;100.00
24230;BME280;12362;50.004;8.006;2024-03-08T01:27:23;100647.13;;;4.17;100.00
24230;BME280;12362;50.004;8.006;2024-03-08T01:29:50;100641.94;;;4.20;100.00
24230;BME280;12362;50.004;8.006;2024-03-08T01:32:15;100641.88;;;4.22;100.00
24230;BME280;12362;50.004;8.006;2024-03-08T01:34:41;100646.38;;;4.11;100.00
24230;BME280;12362;50.004;8.006;2024-03-08T01:37:07;100639.50;;;4.11;100.00
24230;BME280;12362;50.004;8.006;2024-03-08T01:39:33;100639.50;;;4.13;100.00
24230;BME280;12362;50.004;8.006;2024-03-08T01:41:58;100637.03;;;4.07;100.00
24230;BME280;12362;50.004;8.006;2024-03-08T01:44:24;100629.41;;;4.02;100.00
24230;BME280;12362;50.004;8.006;2024-03-08T01:46:50;100627.72;;;4.01;100.00
24230;BME280;12362;50.004;8.006;2024-03-08T01:49:18;100626.75;;;4.07;100.00
24230;BME280;12362;50.004;8.006;2024-03-08T01:51:47;100615.75;;;4.00;100.00
24230;BME280;12362;50.004;8.006;2024-03-08T01:54:14;100618.22;;;4.05;100.00
24230;BME280;12362;50.004;8.006;2024-03-08T01:56:40;100615.81;;;3.97;100.00
24230;BME280;12362;50.004;8.006;2024-03-08T01:59:06;100615.88;;;3.94;100.00
24230;BME280;12362;50.004;8.006;2024-03-08T02:01:33;100601.44;;;3.89;100.00
24230;BME280;12362;50.004;8.006;2024-03-08T02:03:59;100600.66;;;3.84;100.00
24230;BME280;12362;50.004;8.006;2024-03-08T02:06:24;100604.19;;;3.78;100.00
24230;BME280;12362;50.004;8.006;2024-03-08T02:08:50;100593.09;;;3.76;100.00
24230;BME280;12362;50.004;8.006;2024-03-08T02:11:16;100595.63;;;3.79;100.00
24230;BME280;12362;50.004;8.006;2024-03-08T02:13:42;100599.94;;;3.77;100.00
24230;BME280;12362;50.004;8.006;2024-03-08T02:16:08;100593.09;;;3.76;100.00
24230;BME280;12362;50.004;8.006;2024-03-08T02:18:34;100597.56;;;3.67;100.00
24230;BME280;12362;50.004;8.006;2024-03-08T02:21:00;100607.72;;;3.73;100.00
24230;BME280;12362;50.004;8.006;2024-03-08T02:23:27;100601.88;;;3.65;100.00
24230;BME280;12362;50.004;8.006;2024-03-08T02:25:54;100596.75;;;3.63;100.00
24230;BME280;12362;50.004;8.006;2024-03-08T02:28:20;100594.28;;;3.59;100.00
24230;BME280;12362;50.004;8.006;2024-03-08T02:30:50;100590.97;;;3.54;100.00
24230;BME280;12362;50.004;8.006;2024-03-08T02:33:22;100588.44;;;3.51;100.00
24230;BME280;12362;50.004;8.006;2024-03-08T02:35:48;100584.25;;;3.44;100.00
24230;BME280;12362;50.004;8.006;2024-03-08T02:38:23;100579.16;;;3.43;100.00
24230;BME280;12362;50.004;8.006;2024-03-08T02:40:51;100576.56;;;3.46;100.00
24230;BME280;12362;50.004;8.006;2024-03-08T02:43:18;100573.03;;;3.51;100.00
24230;BME280;12362;50.004;8.006;2024-03-08T02:45:44;100573.16;;;3.44;100.00
24230;BME280;12362;50.004;8.006;2024-03-08T02:48:11;100570.59;;;3.44;100.00
24230;BME280;12362;50.004;8.006;2024-03-08T02:50:37;100577.47;;;3.43;100.00
24230;BME280;12362;50.004;8.006;2024-03-08T02:53:04;100575.69;;;3.47;100.00
24230;BME280;12362;50.004;8.006;2024-03-08T02:55:31;100573.22;;;3.42;100.00
24230;BME280;12362;50.004;8.006;2024-03-08T02:57:56;100564.72;;;3.37;100.00
24230;BME280;12362;50.004;8.006;2024-03-08T03:00:23;100569.91;;;3.36;100.00
24230;BME280;12362;50.004;8.006;2024-03-08T03:02:49;100565.72;;;3.30;100.00
24230;BME280;12362;50.004;8.006;2024-03-08T03:05:23;100564.03;;;3.29;100.00
24230;BME280;12362;50.004;8.006;2024-03-08T03:07:49;100570.72;;;3.36;100.00
24230;BME280;12362;50.004;8.006;2024-03-08T03:10:16;100568.28;;;3.30;100.00
24230;BME280;12362;50.004;8.006;2024-03-08T03:12:42;100566.59;;;3.29;100.00
24230;BME280;12362;50.004;8.006;2024-03-08T03:15:08;100567.41;;;3.31;100.00
24230;BME280;12362;50.004;8.006;2024-03-08T03:17:33;100561.53;;;3.23;100.00
24230;BME280;12362;50.004;8.006;2024-03-08T03:19:59;100565.00;;;3.21;100.00
24230;BME280;12362;50.004;8.006;2024-03-08T03:22:28;100564.22;;;3.17;100.00
24230;BME280;12362;50.004;8.006;2024-03-08T03:24:55;100559.84;;;3.22;100.00
24230;BME280;12362;50.004;8.006;2024-03-08T03:27:23;100558.31;;;3.14;100.00
24230;BME280;12362;50.004;8.006;2024-03-08T03:29:50;100559.97;;;3.15;100.00
24230;BME280;12362;50.004;8.006;2024-03-08T03:32:17;100554.75;;;3.21;100.00
24230;BME280;12362;50.004;8.006;2024-03-08T03:34:44;100554.84;;;3.15;100.00
24230;BME280;12362;50.004;8.006;2024-03-08T03:37:10;100549.72;;;3.15;100.00
24230;BME280;12362;50.004;8.006;2024-03-08T03:39:39;100545.53;;;3.09;100.00
24230;BME280;12362;50.004;8.006;2024-03-08T03:42:17;100539.66;;;3.03;100.00
24230;BME280;12362;50.004;8.006;2024-03-08T03:44:47;100533.66;;;3.04;100.00
24230;BME280;12362;50.004;8.006;2024-03-08T03:47:13;100549.88;;;3.06;100.00
24230;BME280;12362;50.004;8.006;2024-03-08T03:49:40;100549.03;;;3.04;100.00
24230;BME280;12362;50.004;8.006;2024-03-08T03:52:06;100548.28;;;2.97;100.00
24230;BME280;12362;50.004;8.006;2024-03-08T03:54:31;100547.41;;;3.00;100.00
24230;BME280;12362;50.004;8.006;2024-03-08T03:56:58;100550.09;;;2.92;100.00
24230;BME280;12362;50.004;8.006;2024-03-08T03:59:24;100546.72;;;2.90;100.00
24230;BME280;12362;50.004;8.006;2024-03-08T04:01:49;100545.06;;;2.86;100.00
24230;BME280;12362;50.004;8.006;2024-03-08T04:04:15;100547.66;;;2.85;100.00
24230;BME280;12362;50.004;8.006;2024-03-08T04:06:41;100540.94;;;2.76;100.00
24230;BME280;12362;50.004;8.006;2024-03-08T04:09:07;100549.47;;;2.78;100.00
24230;BME280;12362;50.004;8.006;2024-03-08T04:11:32;100548.56;;;2.82;100.00
24230;BME280;12362;50.004;8.006;2024-03-08T04:13:58;100543.53;;;2.75;100.00
24230;BME280;12362;50.004;8.006;2024-03-08T04:16:23;100541.84;;;2.72;100.00
24230;BME280;12362;50.004;8.006;2024-03-08T04:18:49;100547.03;;;2.68;100.00
24230;BME280;12362;50.004;8.006;2024-03-08T04:21:15;100546.22;;;2.67;100.00
24230;BME280;12362;50.004;8.006;2024-03-08T04:23:40;100540.28;;;2.64;100.00
24230;BME280;12362;50.004;8.006;2024-03-08T04:26:06;100542.00;;;2.65;100.00
24230;BME280;12362;50.004;8.006;2024-03-08T04:28:34;100539.41;;;2.67;100.00
24230;BME280;12362;50.004;8.006;2024-03-08T04:30:59;100535.25;;;2.60;100.00
24230;BME280;12362;50.004;8.006;2024-03-08T04:33:26;100548.06;;;2.60;100.00
24230;BME280;12362;50.004;8.006;2024-03-08T04:35:52;100543.03;;;2.52;100.00
24230;BME280;12362;50.004;8.006;2024-03-08T04:38:17;100543.91;;;2.50;100.00
24230;BME280;12362;50.004;8.006;2024-03-08T04:40:43;100538.84;;;2.45;100.00
24230;BME280;12362;50.004;8.006;2024-03-08T04:43:08;100536.34;;;2.42;100.00
24230;BME280;12362;50.004;8.006;2024-03-08T04:45:36;100539.81;;;2.38;100.00
24230;BME280;12362;50.004;8.006;2024-03-08T04:48:02;100529.66;;;2.31;100.00
24230;BME280;12362;50.004;8.006;2024-03-08T04:50:28;100528.81;;;2.32;100.00
24230;BME280;12362;50.004;8.006;2024-03-08T04:52:56;100532.09;;;2.40;100.00
24230;BME280;12362;50.004;8.006;2024-03-08T04:55:21;100530.50;;;2.33;100.00
24230;BME280;12362;50.004;8.006;2024-03-08T04:57:48;100530.50;;;2.31;100.00
24230;BME280;12362;50.004;8.006;2024-03-08T05:00:14;100525.41;;;2.30;100.00
24230;BME280;12362;50.004;8.006;2024-03-08T05:02:41;100525.34;;;2.36;100.00
24230;BME280;12362;50.004;8.006;2024-03-08T05:05:09;100516.84;;;2.31;100.00
24230;BME280;12362;50.004;8.006;2024-03-08T05:07:40;100525.44;;;2.27;100.00
24230;BME280;12362;50.004;8.006;2024-03-08T05:10:06;100524.50;;;2.34;100.00
24230;BME280;12362;50.004;8.006;2024-03-08T05:12:33;100520.25;;;2.31;100.00
24230;BME280;12362;50.004;8.006;2024-03-08T05:14:58;100522.81;;;2.31;100.00
24230;BME280;12362;50.004;8.006;2024-03-08T05:17:24;100521.13;;;2.32;100.00
24230;BME280;12362;50.004;8.006;2024-03-08T05:19:50;100521.13;;;2.32;100.00
24230;BME280;12362;50.004;8.006;2024-03-08T05:22:16;100524.63;;;2.26;100.00
24230;BME280;12362;50.004;8.006;2024-03-08T05:24:41;100521.16;;;2.29;100.00
24230;BME280;12362;50.004;8.006;2024-03-08T05:27:07;100516.19;;;2.18;100.00
24230;BME280;12362;50.004;8.006;2024-03-08T05:29:33;100523.78;;;2.24;100.00
24230;BME280;12362;50.004;8.006;2024-03-08T05:31:58;100524.78;;;2.14;100.00
24230;BME280;12362;50.004;8.006;2024-03-08T05:34:24;100523.88;;;2.17;100.00
24230;BME280;12362;50.004;8.006;2024-03-08T05:36:51;100522.28;;;2.10;100.00
24230;BME280;12362;50.004;8.006;2024-03-08T05:39:19;100520.53;;;2.10;100.00
24230;BME280;12362;50.004;8.006;2024-03-08T05:41:47;100510.34;;;2.07;100.00
24230;BME280;12362;50.004;8.006;2024-03-08T05:44:13;100522.34;;;2.04;100.00
24230;BME280;12362;50.004;8.006;2024-03-08T05:46:39;100513.78;;;2.05;100.00
24230;BME280;12362;50.004;8.006;2024-03-08T05:49:06;100509.47;;;2.10;100.00
24230;BME280;12362;50.004;8.006;2024-03-08T05:51:36;100507.78;;;2.09;100.00
24230;BME280;12362;50.004;8.006;2024-03-08T05:54:11;100501.72;;;2.14;100.00
24230;BME280;12362;50.004;8.006;2024-03-08T05:56:38;100493.19;;;2.15;100.00
24230;BME280;12362;50.004;8.006;2024-03-08T05:59:06;100495.63;;;2.21;100.00
24230;BME280;12362;50.004;8.006;2024-03-08T06:01:31;100502.41;;;2.27;100.00
24230;BME280;12362;50.004;8.006;2024-03-08T06:03:57;100501.47;;;2.32;100.00
24230;BME280;12362;50.004;8.006;2024-03-08T06:06:23;100497.22;;;2.30;100.00
24230;BME280;12362;50.004;8.006;2024-03-08T06:08:50;100491.34;;;2.23;100.00
24230;BME280;12362;50.004;8.006;2024-03-08T06:11:16;100492.16;;;2.27;100.00
24230;BME280;12362;50.004;8.006;2024-03-08T06:13:43;100487.03;;;2.28;100.00
24230;BME280;12362;50.004;8.006;2024-03-08T06:16:09;100492.94;;;2.32;100.00
24230;BME280;12362;50.004;8.006;2024-03-08T06:18:35;100492.84;;;2.38;100.00
24230;BME280;12362;50.004;8.006;2024-03-08T06:21:04;100490.22;;;2.44;100.00
24230;BME280;12362;50.004;8.006;2024-03-08T06:23:32;100493.66;;;2.40;100.00
24230;BME280;12362;50.004;8.006;2024-03-08T06:25:58;100494.34;;;2.51;100.00
24230;BME280;12362;50.004;8.006;2024-03-08T06:28:24;100491.75;;;2.54;100.00
24230;BME280;12362;50.004;8.006;2024-03-08T06:30:49;100492.69;;;2.48;100.00
24230;BME280;12362;50.004;8.006;2024-03-08T06:33:17;100491.59;;;2.63;100.00
24230;BME280;12362;50.004;8.006;2024-03-08T06:35:42;100492.31;;;2.72;100.00
24230;BME280;12362;50.004;8.006;2024-03-08T06:38:08;100484.47;;;2.82;100.00
24230;BME280;12362;50.004;8.006;2024-03-08T06:40:33;100485.84;;;3.01;100.00
24230;BME280;12362;50.004;8.006;2024-03-08T06:42:59;100486.59;;;3.08;100.00
24230;BME280;12362;50.004;8.006;2024-03-08T06:45:25;100487.44;;;3.07;100.00
24230;BME280;12362;50.004;8.006;2024-03-08T06:47:51;100487.38;;;3.11;100.00
24230;BME280;12362;50.004;8.006;2024-03-08T06:50:16;100488.09;;;3.19;100.00
24230;BME280;12362;50.004;8.006;2024-03-08T06:52:42;100485.38;;;3.27;100.00
24230;BME280;12362;50.004;8.006;2024-03-08T06:55:08;100486.09;;;3.33;100.00
24230;BME280;12362;50.004;8.006;2024-03-08T06:57:40;100485.00;;;3.46;100.00
24230;BME280;12362;50.004;8.006;2024-03-08T07:00:07;100479.72;;;3.55;100.00
24230;BME280;12362;50.004;8.006;2024-03-08T07:02:35;100481.25;;;3.65;100.00
24230;BME280;12362;50.004;8.006;2024-03-08T07:05:01;100489.56;;;3.76;100.00
24230;BME280;12362;50.004;8.006;2024-03-08T07:07:27;100487.72;;;3.81;100.00
24230;BME280;12362;50.004;8.006;2024-03-08T07:09:52;100478.97;;;3.91;100.00
24230;BME280;12362;50.004;8.006;2024-03-08T07:12:18;100491.66;;;3.98;100.00
24230;BME280;12362;50.004;8.006;2024-03-08T07:14:46;100488.03;;;4.07;100.00
24230;BME280;12362;50.004;8.006;2024-03-08T07:17:12;100481.00;;;4.16;100.00
24230;BME280;12362;50.004;8.006;2024-03-08T07:19:37;100481.50;;;4.32;100.00
24230;BME280;12362;50.004;8.006;2024-03-08T07:22:04;100473.03;;;4.28;100.00
24230;BME280;12362;50.004;8.006;2024-03-08T07:24:30;100478.75;;;4.39;100.00
24230;BME280;12362;50.004;8.006;2024-03-08T07:27:14;100468.13;;;4.54;100.00
24230;BME280;12362;50.004;8.006;2024-03-08T07:29:39;100467.44;;;4.47;100.00
24230;BME280;12362;50.004;8.006;2024-03-08T07:32:05;100466.28;;;4.60;100.00
24230;BME280;12362;50.004;8.006;2024-03-08T07:34:51;100461.91;;;4.64;100.00
24230;BME280;12362;50.004;8.006;2024-03-08T07:37:17;100465.28;;;4.64;100.00
24230;BME280;12362;50.004;8.006;2024-03-08T07:39:43;100466.63;;;4.80;100.00
24230;BME280;12362;50.004;8.006;2024-03-08T07:42:11;100459.53;;;4.90;100.00
24230;BME280;12362;50.004;8.006;2024-03-08T07:44:37;100456.69;;;5.00;100.00
24230;BME280;12362;50.004;8.006;2024-03-08T07:47:03;100447.63;;;5.18;100.00
24230;BME280;12362;50.004;8.006;2024-03-08T07:49:29;100453.41;;;5.27;100.00
24230;BME280;12362;50.004;8.006;2024-03-08T07:51:56;100449.88;;;5.31;100.00
24230;BME280;12362;50.004;8.006;2024-03-08T07:54:21;100446.06;;;5.14;100.00
24230;BME280;12362;50.004;8.006;2024-03-08T07:56:47;100438.75;;;5.29;100.00
24230;BME280;12362;50.004;8.006;2024-03-08T07:59:12;100439.47;;;5.34;100.00
24230;BME280;12362;50.004;8.006;2024-03-08T08:01:38;100432.81;;;5.57;100.00
24230;BME280;12362;50.004;8.006;2024-03-08T08:04:03;100427.88;;;5.50;100.00
24230;BME280;12362;50.004;8.006;2024-03-08T08:06:30;100431.25;;;5.82;100.00
24230;BME280;12362;50.004;8.006;2024-03-08T08:09:00;100420.16;;;5.80;100.00
24230;BME280;12362;50.004;8.006;2024-03-08T08:11:28;100421.13;;;6.05;100.00
24230;BME280;12362;50.004;8.006;2024-03-08T08:13:54;100417.56;;;6.35;100.00
24230;BME280;12362;50.004;8.006;2024-03-08T08:16:25;100423.31;;;6.44;100.00
24230;BME280;12362;50.004;8.006;2024-03-08T08:18:51;100408.97;;;6.62;100.00
24230;BME280;12362;50.004;8.006;2024-03-08T08:21:17;100407.94;;;6.67;100.00
24230;BME280;12362;50.004;8.006;2024-03-08T08:23:43;100407.44;;;6.56;100.00
24230;BME280;12362;50.004;8.006;2024-03-08T08:26:10;100397.44;;;6.72;100.00
24230;BME280;12362;50.004;8.006;2024-03-08T08:28:36;100397.00;;;6.85;100.00
24230;BME280;12362;50.004;8.006;2024-03-08T08:31:03;100397.84;;;6.86;100.00
24230;BME280;12362;50.004;8.006;2024-03-08T08:33:29;100400.88;;;6.98;100.00
24230;BME280;12362;50.004;8.006;2024-03-08T08:35:55;100383.94;;;7.14;100.00
24230;BME280;12362;50.004;8.006;2024-03-08T08:38:21;100382.44;;;7.31;100.00
24230;BME280;12362;50.004;8.006;2024-03-08T08:40:47;100380.72;;;7.55;100.00
24230;BME280;12362;50.004;8.006;2024-03-08T08:43:13;100374.81;;;7.96;100.00
24230;BME280;12362;50.004;8.006;2024-03-08T08:45:39;100375.84;;;8.13;100.00
24230;BME280;12362;50.004;8.006;2024-03-08T08:48:05;100372.78;;;7.82;100.00
24230;BME280;12362;50.004;8.006;2024-03-08T08:50:31;100369.03;;;7.68;100.00
24230;BME280;12362;50.004;8.006;2024-03-08T08:52:57;100366.44;;;7.89;100.00
24230;BME280;12362;50.004;8.006;2024-03-08T08:55:23;100368.28;;;8.08;100.00
24230;BME280;12362;50.004;8.006;2024-03-08T08:57:52;100364.00;;;8.07;100.00
24230;BME280;12362;50.004;8.006;2024-03-08T09:00:19;100360.38;;;7.90;100.00
24230;BME280;12362;50.004;8.006;2024-03-08T09:02:46;100345.06;;;8.07;100.00
24230;BME280;12362;50.004;8.006;2024-03-08T09:05:12;100341.03;;;8.43;100.00
24230;BME280;12362;50.004;8.006;2024-03-08T09:07:37;100332.78;;;8.75;96.64
24230;BME280;12362;50.004;8.006;2024-03-08T09:10:03;100325.91;;;8.74;100.00
24230;BME280;12362;50.004;8.006;2024-03-08T09:12:29;100316.66;;;8.48;97.62
24230;BME280;12362;50.004;8.006;2024-03-08T09:14:55;100311.75;;;8.62;99.83
24230;BME280;12362;50.004;8.006;2024-03-08T09:17:20;100315.13;;;8.64;99.06
24230;BME280;12362;50.004;8.006;2024-03-08T09:19:46;100303.25;;;8.99;97.11
24230;BME280;12362;50.004;8.006;2024-03-08T09:22:13;100300.81;;;8.76;95.84
24230;BME280;12362;50.004;8.006;2024-03-08T09:24:39;100289.91;;;9.44;92.15
24230;BME280;12362;50.004;8.006;2024-03-08T09:27:04;100287.75;;;9.54;85.05
24230;BME280;12362;50.004;8.006;2024-03-08T09:29:30;100285.50;;;9.28;91.36
24230;BME280;12362;50.004;8.006;2024-03-08T09:31:55;100288.53;;;9.37;89.83
24230;BME280;12362;50.004;8.006;2024-03-08T09:34:21;100283.53;;;9.70;92.27
24230;BME280;12362;50.004;8.006;2024-03-08T09:36:46;100279.84;;;9.57;90.20
24230;BME280;12362;50.004;8.006;2024-03-08T09:39:13;100281.34;;;9.61;88.66
24230;BME280;12362;50.004;8.006;2024-03-08T09:41:43;100267.69;;;9.76;88.26
24230;BME280;12362;50.004;8.006;2024-03-08T09:44:09;100253.88;;;10.10;87.40
24230;BME280;12362;50.004;8.006;2024-03-08T09:46:35;100250.31;;;10.30;87.81
24230;BME280;12362;50.004;8.006;2024-03-08T09:49:01;100256.34;;;10.13;84.68
24230;BME280;12362;50.004;8.006;2024-03-08T09:51:33;100247.00;;;10.09;87.95
24230;BME280;12362;50.004;8.006;2024-03-08T09:54:00;100249.94;;;10.03;84.93
24230;BME280;12362;50.004;8.006;2024-03-08T09:56:26;100242.97;;;10.55;87.53
24230;BME280;12362;50.004;8.006;2024-03-08T09:58:53;100240.16;;;10.91;82.45
24230;BME280;12362;50.004;8.006;2024-03-08T10:01:37;100228.75;;;10.62;82.32
24230;BME280;12362;50.004;8.006;2024-03-08T10:04:04;100225.84;;;11.00;80.21
24230;BME280;12362;50.004;8.006;2024-03-08T10:06:29;100230.53;;;10.61;84.45
24230;BME280;12362;50.004;8.006;2024-03-08T10:08:56;100218.25;;;10.80;80.43
24230;BME280;12362;50.004;8.006;2024-03-08T10:11:22;100214.44;;;10.87;79.41
24230;BME280;12362;50.004;8.006;2024-03-08T10:13:49;100211.63;;;10.75;79.27
24230;BME280;12362;50.004;8.006;2024-03-08T10:16:15;100211.19;;;11.30;79.98
24230;BME280;12362;50.004;8.006;2024-03-08T10:18:42;100197.53;;;11.57;79.67
24230;BME280;12362;50.004;8.006;2024-03-08T10:21:09;100187.97;;;12.02;77.86
24230;BME280;12362;50.004;8.006;2024-03-08T10:23:42;100182.69;;;11.44;72.80
24230;BME280;12362;50.004;8.006;2024-03-08T10:26:16;100192.41;;;11.40;76.74
24230;BME280;12362;50.004;8.006;2024-03-08T10:28:48;100189.25;;;11.66;76.23
24230;BME280;12362;50.004;8.006;2024-03-08T10:31:14;100173.50;;;12.12;70.94
24230;BME280;12362;50.004;8.006;2024-03-08T10:33:44;100176.13;;;11.21;76.78
24230;BME280;12362;50.004;8.006;2024-03-08T10:36:11;100164.38;;;11.45;74.75
24230;BME280;12362;50.004;8.006;2024-03-08T10:38:39;100163.13;;;11.68;76.37
24230;BME280;12362;50.004;8.006;2024-03-08T10:41:10;100164.31;;;11.47;76.32
24230;BME280;12362;50.004;8.006;2024-03-08T10:48:52;100136.19;;;12.55;70.03
24230;BME280;12362;50.004;8.006;2024-03-08T10:51:19;100134.22;;;12.45;67.35
24230;BME280;12362;50.004;8.006;2024-03-08T10:53:46;100130.25;;;11.96;71.18
24230;BME280;12362;50.004;8.006;2024-03-08T10:56:13;100130.41;;;12.50;69.00
24230;BME280;12362;50.004;8.006;2024-03-08T10:58:40;100133.16;;;12.05;67.51
24230;BME280;12362;50.004;8.006;2024-03-08T11:01:06;100126.81;;;12.79;67.04
24230;BME280;12362;50.004;8.006;2024-03-08T11:03:52;100111.31;;;12.50;67.78
24230;BME280;12362;50.004;8.006;2024-03-08T11:08:59;100119.13;;;12.64;65.55
24230;BME280;12362;50.004;8.006;2024-03-08T11:11:29;100112.81;;;12.54;66.12
24230;BME280;12362;50.004;8.006;2024-03-08T11:14:00;100102.78;;;13.16;65.43
24230;BME280;12362;50.004;8.006;2024-03-08T11:19:00;100099.78;;;13.22;62.05
24230;BME280;12362;50.004;8.006;2024-03-08T11:21:30;100104.88;;;13.23;61.95
24230;BME280;12362;50.004;8.006;2024-03-08T11:24:17;100093.28;;;13.15;59.38
24230;BME280;12362;50.004;8.006;2024-03-08T11:26:45;100095.50;;;13.21;56.87
24230;BME280;12362;50.004;8.006;2024-03-08T11:32:12;100089.75;;;13.42;59.91
24230;BME280;12362;50.004;8.006;2024-03-08T11:34:41;100088.72;;;13.18;58.03
24230;BME280;12362;50.004;8.006;2024-03-08T11:37:16;100083.41;;;13.20;55.84
24230;BME280;12362;50.004;8.006;2024-03-08T11:39:54;100082.75;;;12.76;57.85
24230;BME280;12362;50.004;8.006;2024-03-08T11:42:30;100073.16;;;13.43;58.08
24230;BME280;12362;50.004;8.006;2024-03-08T11:44:56;100066.28;;;13.42;55.57
24230;BME280;12362;50.004;8.006;2024-03-08T11:47:23;100057.88;;;13.88;54.88
24230;BME280;12362;50.004;8.006;2024-03-08T11:49:48;100062.72;;;13.94;57.32
24230;BME280;12362;50.004;8.006;2024-03-08T11:52:15;100074.00;;;13.56;56.90
24230;BME280;12362;50.004;8.006;2024-03-08T11:54:42;100057.16;;;13.86;57.71
24230;BME280;12362;50.004;8.006;2024-03-08T11:57:09;100050.81;;;14.40;58.16
24230;BME280;12362;50.004;8.006;2024-03-08T11:59:35;100054.66;;;14.47;55.38
24230;BME280;12362;50.004;8.006;2024-03-08T12:02:06;100047.41;;;14.63;55.90
24230;BME280;12362;50.004;8.006;2024-03-08T12:04:35;100046.50;;;13.89;55.40
24230;BME280;12362;50.004;8.006;2024-03-08T12:07:02;100051.00;;;13.36;57.57
24230;BME280;12362;50.004;8.006;2024-03-08T12:09:28;100038.66;;;13.64;56.91
24230;BME280;12362;50.004;8.006;2024-03-08T12:11:54;100039.53;;;14.27;55.58
24230;BME280;12362;50.004;8.006;2024-03-08T12:14:20;100032.13;;;13.96;57.29
24230;BME280;12362;50.004;8.006;2024-03-08T12:16:46;100027.59;;;13.98;58.10
24230;BME280;12362;50.004;8.006;2024-03-08T12:19:13;100011.94;;;14.95;58.73
24230;BME280;12362;50.004;8.006;2024-03-08T12:21:39;100008.13;;;14.88;52.35
24230;BME280;12362;50.004;8.006;2024-03-08T12:24:16;100011.03;;;14.60;55.40
24230;BME280;12362;50.004;8.006;2024-03-08T12:26:47;100019.59;;;14.14;56.51
24230;BME280;12362;50.004;8.006;2024-03-08T12:31:43;100007.66;;;14.10;54.27
24230;BME280;12362;50.004;8.006;2024-03-08T12:34:08;100004.78;;;15.09;53.73
24230;BME280;12362;50.004;8.006;2024-03-08T12:36:35;99995.59;;;15.27;54.57
24230;BME280;12362;50.004;8.006;2024-03-08T12:39:05;99994.88;;;15.25;52.61
24230;BME280;12362;50.004;8.006;2024-03-08T12:41:39;99990.19;;;15.18;54.49
24230;BME280;12362;50.004;8.006;2024-03-08T12:44:04;99992.13;;;15.61;52.11
24230;BME280;12362;50.004;8.006;2024-03-08T12:46:32;99981.38;;;14.84;53.94
24230;BME280;12362;50.004;8.006;2024-03-08T12:48:58;99984.91;;;14.60;54.00
24230;BME280;12362;50.004;8.006;2024-03-08T12:51:24;99982.19;;;14.85;52.97
24230;BME280;12362;50.004;8.006;2024-03-08T12:53:50;99975.50;;;13.97;55.04
24230;BME280;12362;50.004;8.006;2024-03-08T12:56:30;99974.72;;;14.45;55.58
24230;BME280;12362;50.004;8.006;2024-03-08T12:58:56;99974.66;;;14.09;54.76
24230;BME280;12362;50.004;8.006;2024-03-08T13:01:22;99961.38;;;14.37;56.22
24230;BME280;12362;50.004;8.006;2024-03-08T13:03:48;99964.63;;;14.28;53.49
24230;BME280;12362;50.004;8.006;2024-03-08T13:06:15;99963.00;;;13.77;54.28